createdAt,value
2023-04-15T00:01:51.747Z,2.22
2023-04-15T00:04:18.521Z,3.58
2023-04-15T00:06:52.172Z,2.50
2023-04-15T00:09:19.686Z,2.85
2023-04-15T00:11:46.396Z,3.00
2023-04-15T00:14:13.674Z,3.30
2023-04-15T00:16:40.310Z,2.45
2023-04-15T00:19:07.029Z,3.78
2023-04-15T00:21:34.075Z,4.50
2023-04-15T00:24:01.207Z,5.78
2023-04-15T00:26:27.980Z,3.22
2023-04-15T00:28:54.682Z,4.75
2023-04-15T00:31:21.913Z,4.10
2023-04-15T00:33:48.816Z,3.40
2023-04-15T00:36:15.616Z,6.47
2023-04-15T00:38:42.310Z,4.50
2023-04-15T00:41:09.377Z,7.75
2023-04-15T00:43:36.001Z,4.53
2023-04-15T00:46:04.098Z,5.00
2023-04-15T00:48:30.872Z,4.10
2023-04-15T00:50:57.609Z,4.20
2023-04-15T00:53:24.268Z,7.97
2023-04-15T00:55:51.434Z,7.72
2023-04-15T00:58:18.123Z,4.85
2023-04-15T01:00:44.818Z,9.40
2023-04-15T01:03:11.846Z,5.25
2023-04-15T01:05:38.821Z,5.65
2023-04-15T01:08:05.978Z,3.85
2023-04-15T01:10:32.643Z,5.15
2023-04-15T01:12:59.307Z,4.88
2023-04-15T01:15:26.395Z,4.28
2023-04-15T01:17:53.106Z,2.50
2023-04-15T01:20:20.370Z,3.28
2023-04-15T01:22:46.993Z,2.50
2023-04-15T01:25:17.913Z,2.50
2023-04-15T01:27:44.567Z,2.35
2023-04-15T01:30:11.597Z,4.82
2023-04-15T01:32:38.358Z,2.90
2023-04-15T01:35:05.398Z,2.25
2023-04-15T01:37:32.086Z,3.67
2023-04-15T01:39:58.736Z,1.75
2023-04-15T01:42:25.476Z,3.10
2023-04-15T01:44:52.226Z,4.15
2023-04-15T01:47:18.921Z,3.30
2023-04-15T01:49:45.662Z,2.28
2023-04-15T01:52:12.280Z,4.00
2023-04-15T01:54:38.934Z,2.50
2023-04-15T01:57:05.738Z,3.45
2023-04-15T01:59:32.423Z,2.58
2023-04-15T02:01:59.151Z,4.45
2023-04-15T02:04:25.921Z,4.00
2023-04-15T02:06:52.569Z,6.70
2023-04-15T02:09:19.211Z,5.82
2023-04-15T02:11:45.990Z,7.18
2023-04-15T02:14:12.755Z,18.67
2023-04-15T02:16:39.419Z,8.90
2023-04-15T02:19:06.161Z,3.47
2023-04-15T02:21:32.806Z,4.20
2023-04-15T02:23:59.450Z,5.00
2023-04-15T02:26:26.196Z,5.55
2023-04-15T02:28:52.873Z,4.25
2023-04-15T02:31:19.588Z,6.07
2023-04-15T02:33:46.773Z,6.15
2023-04-15T02:36:13.427Z,5.25
2023-04-15T02:38:43.344Z,3.47
2023-04-15T02:41:10.613Z,16.60
2023-04-15T02:43:38.058Z,9.63
2023-04-15T02:46:04.826Z,8.40
2023-04-15T02:48:31.611Z,6.03
2023-04-15T02:51:19.697Z,5.15
2023-04-15T02:53:47.330Z,4.57
2023-04-15T02:56:15.339Z,5.53
2023-04-15T02:58:42.225Z,5.68
2023-04-15T03:01:11.881Z,5.00
2023-04-15T03:03:38.621Z,10.23
2023-04-15T03:06:05.507Z,7.38
2023-04-15T03:08:32.256Z,10.00
2023-04-15T03:11:00.920Z,7.40
2023-04-15T03:13:27.709Z,4.93
2023-04-15T03:15:54.504Z,4.63
2023-04-15T03:18:21.619Z,6.80
2023-04-15T03:20:48.261Z,10.18
2023-04-15T03:23:15.012Z,6.90
2023-04-15T03:25:41.754Z,8.40
2023-04-15T03:28:08.382Z,12.50
2023-04-15T03:30:35.049Z,6.40
2023-04-15T03:33:01.832Z,5.90
2023-04-15T03:35:28.522Z,7.00
2023-04-15T03:37:55.698Z,9.80
2023-04-15T03:40:22.618Z,11.32
2023-04-15T03:42:49.275Z,17.10
2023-04-15T03:45:16.145Z,14.98
2023-04-15T03:47:42.910Z,12.25
2023-04-15T03:50:09.738Z,7.00
2023-04-15T03:52:36.443Z,5.82
2023-04-15T03:55:03.166Z,6.03
2023-04-15T03:57:29.858Z,5.40
2023-04-15T03:59:56.561Z,4.10
2023-04-15T04:02:23.600Z,3.83
2023-04-15T04:04:50.826Z,12.88
2023-04-15T04:07:18.232Z,7.32
2023-04-15T04:09:47.027Z,9.93
2023-04-15T04:12:14.057Z,11.35
2023-04-15T04:14:40.874Z,7.60
2023-04-15T04:17:07.559Z,24.50
2023-04-15T04:19:34.254Z,40.42
2023-04-15T04:22:01.079Z,44.35
2023-04-15T04:24:27.776Z,37.63
2023-04-15T04:26:54.570Z,36.38
2023-04-15T04:29:21.514Z,7.03
2023-04-15T04:31:48.799Z,3.58
2023-04-15T04:34:16.204Z,5.50
2023-04-15T04:36:42.886Z,4.75
2023-04-15T04:39:09.519Z,7.40
2023-04-15T04:41:36.318Z,5.75
2023-04-15T04:44:03.724Z,7.00
2023-04-15T04:46:30.398Z,6.00
2023-04-15T04:48:57.020Z,7.43
2023-04-15T04:51:23.751Z,7.30
2023-04-15T04:53:50.552Z,8.50
2023-04-15T04:56:17.212Z,9.77
2023-04-15T04:58:43.890Z,15.95
2023-04-15T05:01:10.640Z,14.82
2023-04-15T05:03:38.103Z,12.23
2023-04-15T05:06:07.437Z,10.55
2023-04-15T05:08:34.148Z,9.52
2023-04-15T05:11:00.892Z,26.08
2023-04-15T05:13:27.549Z,10.75
2023-04-15T05:15:54.271Z,8.68
2023-04-15T05:18:21.044Z,16.73
2023-04-15T05:20:47.925Z,10.82
2023-04-15T05:23:14.627Z,38.80
2023-04-15T05:25:41.540Z,13.23
2023-04-15T05:28:08.221Z,7.63
2023-04-15T05:30:34.915Z,13.07
2023-04-15T05:33:01.927Z,15.23
2023-04-15T05:35:28.680Z,10.45
2023-04-15T05:37:55.302Z,7.82
2023-04-15T05:40:22.382Z,7.40
2023-04-15T05:42:49.025Z,7.18
2023-04-15T05:45:15.614Z,9.63
2023-04-15T05:47:42.565Z,8.45
2023-04-15T05:50:09.643Z,11.68
2023-04-15T05:52:37.054Z,12.45
2023-04-15T05:55:03.793Z,12.35
2023-04-15T05:57:30.452Z,12.30
2023-04-15T05:59:57.912Z,13.95
2023-04-15T06:02:24.631Z,21.33
2023-04-15T06:04:51.453Z,18.92
2023-04-15T06:07:18.093Z,17.52
2023-04-15T06:09:44.990Z,12.70
2023-04-15T06:12:13.189Z,34.88
2023-04-15T06:14:40.602Z,10.38
2023-04-15T06:17:07.674Z,11.90
2023-04-15T06:19:35.074Z,15.18
2023-04-15T06:22:01.962Z,12.30
2023-04-15T06:24:28.748Z,15.60
2023-04-15T06:26:56.061Z,8.85
2023-04-15T06:29:22.695Z,7.75
2023-04-15T06:31:49.922Z,12.20
2023-04-15T06:34:16.723Z,11.77
2023-04-15T06:36:43.393Z,7.18
2023-04-15T06:39:10.610Z,7.22
2023-04-15T06:41:37.344Z,7.78
2023-04-15T06:44:04.042Z,4.47
2023-04-15T06:46:30.769Z,5.22
2023-04-15T06:48:57.472Z,5.32
2023-04-15T06:51:26.562Z,4.47
2023-04-15T06:53:53.380Z,12.95
2023-04-15T06:56:20.065Z,2.95
2023-04-15T06:58:47.260Z,2.80
2023-04-15T07:01:14.459Z,2.72
2023-04-15T07:03:42.057Z,6.15
2023-04-15T07:06:09.514Z,11.75
2023-04-15T07:08:36.269Z,4.55
2023-04-15T07:11:02.943Z,2.05
2023-04-15T07:13:31.561Z,2.83
2023-04-15T07:15:58.622Z,7.30
2023-04-15T07:18:25.590Z,4.50
2023-04-15T07:20:52.306Z,3.10
2023-04-15T07:23:18.926Z,1.52
2023-04-15T07:25:45.684Z,2.05
2023-04-15T07:28:12.652Z,3.80
2023-04-15T07:30:39.586Z,2.55
2023-04-15T07:33:06.277Z,4.38
2023-04-15T07:35:33.402Z,2.80
2023-04-15T07:38:00.036Z,3.22
2023-04-15T07:40:26.703Z,2.35
2023-04-15T07:42:53.368Z,1.92
2023-04-15T07:45:20.180Z,1.55
2023-04-15T07:47:47.019Z,3.00
2023-04-15T07:50:13.753Z,1.80
2023-04-15T07:52:40.468Z,1.55
2023-04-15T07:55:08.625Z,7.22
2023-04-15T07:57:36.314Z,2.67
2023-04-15T08:00:05.840Z,3.05
2023-04-15T08:02:32.750Z,2.40
2023-04-15T08:04:59.888Z,4.00
2023-04-15T08:07:27.465Z,2.42
2023-04-15T08:09:54.121Z,2.75
2023-04-15T08:12:20.824Z,2.55
2023-04-15T08:14:47.591Z,5.65
2023-04-15T08:17:14.288Z,4.63
2023-04-15T08:19:41.421Z,1.00
2023-04-15T08:22:15.158Z,4.93
2023-04-15T08:24:44.672Z,3.22
2023-04-15T08:27:11.309Z,1.40
2023-04-15T08:29:38.024Z,1.42
2023-04-15T08:32:05.008Z,2.70
2023-04-15T08:34:32.128Z,2.53
2023-04-15T08:36:58.799Z,1.65
2023-04-15T08:39:26.112Z,2.17
2023-04-15T08:42:02.720Z,3.08
2023-04-15T08:44:30.613Z,3.90
2023-04-15T08:46:57.440Z,1.23
2023-04-15T08:49:24.046Z,1.77
2023-04-15T08:51:50.690Z,2.35
2023-04-15T08:54:17.329Z,4.28
2023-04-15T08:56:44.016Z,1.10
2023-04-15T08:59:11.377Z,2.88
2023-04-15T09:01:38.428Z,2.47
2023-04-15T09:04:08.210Z,2.78
2023-04-15T09:06:35.135Z,2.28
2023-04-15T09:09:01.944Z,1.67
2023-04-15T09:11:30.822Z,2.97
2023-04-15T09:13:57.684Z,2.28
2023-04-15T09:16:24.643Z,2.78
2023-04-15T09:18:51.483Z,1.48
2023-04-15T09:21:18.266Z,1.70
2023-04-15T09:24:01.485Z,3.75
2023-04-15T09:26:35.695Z,0.77
2023-04-15T09:29:09.418Z,2.38
2023-04-15T09:31:39.330Z,1.65
2023-04-15T09:34:06.270Z,4.03
2023-04-15T09:36:52.942Z,2.13
2023-04-15T09:39:19.627Z,1.75
2023-04-15T09:41:46.360Z,1.30
2023-04-15T09:44:25.288Z,2.85
2023-04-15T09:46:52.022Z,0.73
2023-04-15T09:49:18.715Z,2.13
2023-04-15T09:51:54.424Z,0.90
2023-04-15T09:54:38.210Z,1.05
2023-04-15T09:57:08.710Z,2.05
2023-04-15T09:59:35.713Z,0.70
2023-04-15T10:02:07.832Z,1.33
2023-04-15T10:04:36.712Z,1.55
2023-04-15T10:07:05.068Z,1.38
2023-04-15T10:11:59.376Z,1.95
2023-04-15T10:14:26.024Z,3.25
2023-04-15T10:16:52.664Z,2.67
2023-04-15T10:19:19.789Z,1.38
2023-04-15T10:21:46.759Z,0.80
2023-04-15T10:24:13.430Z,1.55
2023-04-15T10:26:40.059Z,2.88
2023-04-15T10:29:06.676Z,0.88
2023-04-15T10:31:33.338Z,0.73
2023-04-15T10:34:04.317Z,0.88
2023-04-15T10:36:31.112Z,2.20
2023-04-15T10:38:57.784Z,1.00
2023-04-15T10:41:28.195Z,2.08
2023-04-15T10:44:03.311Z,1.25
2023-04-15T10:46:43.508Z,1.10
2023-04-15T10:49:14.933Z,0.30
2023-04-15T10:51:45.546Z,0.10
2023-04-15T10:54:27.291Z,1.52
2023-04-15T10:57:21.873Z,0.60
2023-04-15T11:00:15.513Z,1.17
2023-04-15T11:02:47.503Z,0.70
2023-04-15T11:05:18.073Z,1.08
2023-04-15T11:07:44.804Z,1.92
2023-04-15T11:10:14.198Z,0.77
2023-04-15T11:12:41.298Z,1.40
2023-04-15T11:15:45.612Z,1.10
2023-04-15T11:18:19.040Z,1.63
2023-04-15T11:20:45.780Z,2.47
2023-04-15T11:23:14.592Z,0.57
2023-04-15T11:25:43.298Z,2.13
2023-04-15T11:28:10.636Z,1.75
2023-04-15T11:30:37.567Z,2.17
2023-04-15T11:33:12.570Z,3.83
2023-04-15T11:35:41.081Z,2.38
2023-04-15T11:38:12.269Z,1.20
2023-04-15T11:40:38.994Z,2.20
2023-04-15T11:43:08.756Z,2.15
2023-04-15T11:45:44.504Z,1.55
2023-04-15T11:48:11.773Z,1.38
2023-04-15T11:50:40.892Z,2.88
2023-04-15T11:53:09.142Z,2.47
2023-04-15T11:55:50.487Z,1.38
2023-04-15T11:58:26.776Z,2.30
2023-04-15T12:00:59.012Z,2.00
2023-04-15T12:03:30.556Z,2.38
2023-04-15T12:06:06.360Z,1.10
2023-04-15T12:08:59.192Z,1.33
2023-04-15T12:11:32.523Z,0.47
2023-04-15T12:14:07.458Z,1.98
2023-04-15T12:16:37.212Z,0.52
2023-04-15T12:19:17.138Z,0.47
2023-04-15T12:21:45.504Z,0.85
2023-04-15T12:24:15.521Z,2.13
2023-04-15T12:26:49.662Z,0.70
2023-04-15T12:29:17.345Z,0.30
2023-04-15T12:31:51.729Z,0.60
2023-04-15T12:36:45.325Z,0.38
2023-04-15T12:39:12.044Z,1.63
2023-04-15T12:41:39.050Z,5.38
2023-04-15T12:44:05.867Z,1.42
2023-04-15T12:46:32.875Z,2.28
2023-04-15T12:48:59.546Z,1.80
2023-04-15T12:51:27.424Z,2.08
2023-04-15T12:53:54.124Z,1.58
2023-04-15T12:56:20.754Z,4.38
2023-04-15T12:58:47.507Z,2.25
2023-04-15T13:01:14.211Z,2.20
2023-04-15T13:03:41.272Z,0.73
2023-04-15T13:06:08.267Z,0.30
2023-04-15T13:08:36.873Z,1.20
2023-04-15T13:11:05.959Z,1.48
2023-04-15T13:13:32.771Z,1.35
2023-04-15T13:15:59.440Z,1.98
2023-04-15T13:18:26.145Z,6.10
2023-04-15T13:20:52.818Z,3.92
2023-04-15T13:23:19.443Z,2.35
2023-04-15T13:25:46.112Z,4.18
2023-04-15T13:28:12.703Z,2.25
2023-04-15T13:30:39.540Z,1.65
2023-04-15T13:33:06.339Z,1.63
2023-04-15T13:35:33.140Z,5.10
2023-04-15T13:37:59.776Z,1.60
2023-04-15T13:40:26.399Z,2.45
2023-04-15T13:42:53.330Z,3.90
2023-04-15T13:45:20.044Z,1.77
2023-04-15T13:47:46.722Z,2.50
2023-04-15T13:50:13.469Z,1.00
2023-04-15T13:52:40.161Z,1.42
2023-04-15T13:55:19.547Z,1.50
2023-04-15T13:57:47.926Z,1.95
2023-04-15T14:00:14.885Z,2.40
2023-04-15T14:02:42.454Z,4.95
2023-04-15T14:05:10.797Z,1.58
2023-04-15T14:07:37.450Z,2.30
2023-04-15T14:10:04.414Z,2.30
2023-04-15T14:12:31.152Z,3.92
2023-04-15T14:14:57.858Z,2.67
2023-04-15T14:17:24.547Z,3.35
2023-04-15T14:19:51.334Z,3.13
2023-04-15T14:22:19.035Z,3.72
2023-04-15T14:24:45.735Z,0.93
2023-04-15T14:27:12.669Z,2.53
2023-04-15T14:29:39.324Z,2.90
2023-04-15T14:32:12.337Z,3.50
2023-04-15T14:34:39.747Z,3.78
2023-04-15T14:37:06.523Z,1.38
2023-04-15T14:39:33.176Z,1.75
2023-04-15T14:41:59.946Z,1.42
2023-04-15T14:44:26.602Z,1.98
2023-04-15T14:46:53.705Z,1.60
2023-04-15T14:49:20.524Z,3.47
2023-04-15T14:51:47.178Z,4.03
2023-04-15T14:54:13.818Z,2.30
2023-04-15T14:56:40.574Z,2.33
2023-04-15T14:59:07.512Z,3.70
2023-04-15T15:01:34.575Z,1.77
2023-04-15T15:04:01.421Z,3.33
2023-04-15T15:06:28.428Z,3.28
2023-04-15T15:08:55.068Z,2.50
2023-04-15T15:11:21.799Z,3.28
2023-04-15T15:13:48.586Z,3.72
2023-04-15T15:16:15.352Z,4.20
2023-04-15T15:18:42.120Z,2.80
2023-04-15T15:21:08.777Z,4.65
2023-04-15T15:23:35.615Z,3.40
2023-04-15T15:26:02.298Z,3.35
2023-04-15T15:28:28.904Z,7.15
2023-04-15T15:30:55.915Z,3.75
2023-04-15T15:33:22.612Z,3.65
2023-04-15T15:35:49.349Z,15.57
2023-04-15T15:38:16.252Z,5.57
2023-04-15T15:40:42.915Z,6.72
2023-04-15T15:43:09.528Z,4.53
2023-04-15T15:45:36.223Z,4.55
2023-04-15T15:48:02.969Z,4.50
2023-04-15T15:50:29.700Z,6.43
2023-04-15T15:52:56.477Z,11.05
2023-04-15T15:55:25.255Z,41.42
2023-04-15T15:57:52.020Z,7.82
2023-04-15T16:00:18.719Z,23.92
2023-04-15T16:05:14.947Z,10.52
2023-04-15T16:07:41.653Z,4.05
2023-04-15T16:10:08.944Z,5.35
2023-04-15T16:12:35.659Z,5.93
2023-04-15T16:15:02.932Z,4.20
2023-04-15T16:17:29.554Z,3.38
2023-04-15T16:20:00.779Z,1.63
2023-04-15T16:22:28.029Z,3.55
2023-04-15T16:24:54.695Z,7.22
2023-04-15T16:27:21.396Z,3.33
2023-04-15T16:29:48.001Z,8.45
2023-04-15T16:32:14.660Z,7.03
2023-04-15T16:34:41.377Z,8.82
2023-04-15T16:37:08.090Z,9.73
2023-04-15T16:39:34.803Z,12.43
2023-04-15T16:42:02.489Z,10.52
2023-04-15T16:44:29.325Z,13.20
2023-04-15T16:46:56.616Z,18.95
2023-04-15T16:49:23.280Z,12.43
2023-04-15T16:51:49.893Z,21.20
2023-04-15T16:54:16.493Z,14.43
2023-04-15T16:56:43.097Z,15.82
2023-04-15T16:59:09.770Z,10.65
2023-04-15T17:01:39.603Z,19.33
2023-04-15T17:04:07.293Z,28.08
2023-04-15T17:06:34.014Z,25.25
2023-04-15T17:09:00.707Z,23.48
2023-04-15T17:11:28.109Z,24.55
2023-04-15T17:13:54.721Z,13.70
2023-04-15T17:16:21.624Z,15.93
2023-04-15T17:18:50.262Z,16.33
2023-04-15T17:21:17.621Z,18.02
2023-04-15T17:23:44.341Z,21.25
2023-04-15T17:26:11.163Z,20.90
2023-04-15T17:28:38.113Z,28.17
2023-04-15T17:31:05.097Z,27.17
2023-04-15T17:34:04.599Z,11.93
2023-04-15T17:36:18.438Z,17.15
2023-04-15T17:38:45.576Z,15.40
2023-04-15T17:41:12.347Z,22.85
2023-04-15T17:43:39.058Z,17.88
2023-04-15T17:46:07.108Z,29.15
2023-04-15T17:48:34.209Z,23.30
2023-04-15T17:51:00.938Z,36.80
2023-04-15T17:53:27.896Z,13.93
2023-04-15T17:55:54.802Z,17.27
2023-04-15T17:58:21.478Z,14.35
2023-04-15T18:00:48.116Z,17.52
2023-04-15T18:03:15.193Z,8.80
2023-04-15T18:05:42.795Z,12.95
2023-04-15T18:08:09.654Z,15.25
2023-04-15T18:10:36.450Z,11.82
2023-04-15T18:13:03.518Z,15.55
2023-04-15T18:15:33.544Z,17.88
2023-04-15T18:18:00.308Z,19.05
2023-04-15T18:20:27.057Z,19.63
2023-04-15T18:22:53.736Z,22.02
2023-04-15T18:25:20.538Z,20.20
2023-04-15T18:27:47.229Z,9.60
2023-04-15T18:30:13.872Z,22.48
2023-04-15T18:32:41.044Z,19.27
2023-04-15T18:35:08.148Z,83.25
2023-04-15T18:37:34.860Z,37.03
2023-04-15T18:40:01.500Z,27.48
2023-04-15T18:42:28.244Z,17.60
2023-04-15T18:44:55.120Z,17.92
2023-04-15T18:47:22.096Z,21.95
2023-04-15T18:49:48.767Z,26.30
2023-04-15T18:52:15.555Z,20.52
2023-04-15T18:54:42.211Z,22.85
2023-04-15T18:57:08.838Z,10.75
2023-04-15T18:59:35.772Z,11.70
2023-04-15T19:02:06.491Z,32.67
2023-04-15T19:04:33.332Z,17.55
2023-04-15T19:07:00.079Z,16.58
2023-04-15T19:09:26.878Z,23.00
2023-04-15T19:11:53.588Z,33.42
2023-04-15T19:14:20.342Z,22.73
2023-04-15T19:16:47.027Z,24.90
2023-04-15T19:19:15.054Z,18.85
2023-04-15T19:21:41.727Z,16.90
2023-04-15T19:24:08.378Z,21.58
2023-04-15T19:26:36.745Z,27.15
2023-04-15T19:29:03.911Z,64.53
2023-04-15T19:31:30.770Z,40.80
2023-04-15T19:33:57.443Z,28.10
2023-04-15T19:36:24.081Z,28.55
2023-04-15T19:38:50.804Z,16.58
2023-04-15T19:41:17.438Z,17.17
2023-04-15T19:43:44.134Z,19.17
2023-04-15T19:46:13.223Z,13.50
2023-04-15T19:48:40.014Z,12.52
2023-04-15T19:51:06.727Z,14.68
2023-04-15T19:53:33.423Z,32.10
2023-04-15T19:56:00.426Z,21.25
2023-04-15T19:58:27.062Z,28.73
2023-04-15T20:00:53.725Z,48.92
2023-04-15T20:03:21.017Z,45.00
2023-04-15T20:05:47.910Z,25.75
2023-04-15T20:08:14.565Z,17.23
2023-04-15T20:10:41.198Z,21.52
2023-04-15T20:13:07.863Z,14.50
2023-04-15T20:15:34.676Z,19.00
2023-04-15T20:18:01.423Z,35.33
2023-04-15T20:20:28.248Z,18.33
2023-04-15T20:22:54.908Z,14.73
2023-04-15T20:25:21.594Z,16.85
2023-04-15T20:27:48.257Z,15.68
2023-04-15T20:30:14.962Z,67.70
2023-04-15T20:32:41.676Z,37.33
2023-04-15T20:35:08.512Z,24.52
2023-04-15T20:37:36.676Z,29.25
2023-04-15T20:40:03.470Z,20.40
2023-04-15T20:42:34.338Z,22.05
2023-04-15T20:45:01.338Z,21.33
2023-04-15T20:47:28.110Z,12.13
2023-04-15T20:49:54.809Z,12.85
2023-04-15T20:52:21.861Z,10.18
2023-04-15T20:54:48.489Z,27.38
2023-04-15T20:57:15.450Z,53.85
2023-04-15T20:59:42.162Z,140.57
2023-04-15T21:02:08.946Z,38.08
2023-04-15T21:04:35.908Z,19.52
2023-04-15T21:07:02.637Z,20.08
2023-04-15T21:09:29.261Z,17.95
2023-04-15T21:14:25.588Z,47.97
2023-04-15T21:16:52.243Z,21.08
2023-04-15T21:19:18.877Z,26.77
2023-04-15T21:21:45.666Z,23.35
2023-04-15T21:24:12.322Z,44.83
2023-04-15T21:26:39.026Z,34.53
2023-04-15T21:29:07.304Z,16.52
2023-04-15T21:31:36.279Z,10.18
2023-04-15T21:34:02.962Z,18.45
2023-04-15T21:36:29.611Z,17.77
2023-04-15T21:38:56.222Z,20.40
2023-04-15T21:41:22.923Z,13.25
2023-04-15T21:43:49.571Z,10.85
2023-04-15T21:46:23.648Z,9.27
2023-04-15T21:48:53.342Z,17.58
2023-04-15T21:51:20.084Z,15.07
2023-04-15T21:53:46.731Z,11.60
2023-04-15T21:56:13.437Z,14.18
2023-04-15T21:58:40.072Z,21.83
2023-04-15T22:01:06.735Z,19.85
2023-04-15T22:03:34.418Z,18.45
2023-04-15T22:06:04.547Z,23.45
2023-04-15T22:08:44.505Z,16.85
2023-04-15T22:11:28.140Z,14.95
2023-04-15T22:13:55.058Z,12.50
2023-04-15T22:16:21.853Z,10.27
2023-04-15T22:18:48.646Z,11.82
2023-04-15T22:21:15.418Z,13.75
2023-04-15T22:23:42.046Z,12.90
2023-04-15T22:26:08.709Z,11.00
2023-04-15T22:28:35.381Z,9.38
2023-04-15T22:31:02.501Z,10.55
2023-04-15T22:33:29.426Z,13.48
2023-04-15T22:35:56.312Z,12.80
2023-04-15T22:38:22.961Z,14.05
2023-04-15T22:40:49.579Z,16.13
2023-04-15T22:43:16.296Z,14.15
2023-04-15T22:45:42.954Z,15.60
2023-04-15T22:48:09.561Z,18.77
2023-04-15T22:50:37.464Z,20.85
2023-04-15T22:53:04.126Z,24.48
2023-04-15T22:55:30.928Z,9.63
2023-04-15T22:57:57.721Z,15.10
2023-04-15T23:00:24.335Z,15.95
2023-04-15T23:02:51.287Z,25.38
2023-04-15T23:05:18.242Z,26.40
2023-04-15T23:07:44.915Z,25.63
2023-04-15T23:10:11.686Z,17.60
2023-04-15T23:12:38.355Z,11.75
2023-04-15T23:15:05.459Z,16.33
2023-04-15T23:17:32.177Z,13.55
2023-04-15T23:19:58.922Z,12.95
2023-04-15T23:22:25.568Z,12.85
2023-04-15T23:24:52.212Z,17.83
2023-04-15T23:27:19.082Z,15.88
2023-04-15T23:29:46.184Z,14.88
2023-04-15T23:32:12.891Z,27.48
2023-04-15T23:34:39.567Z,19.30
2023-04-15T23:37:06.250Z,9.50
2023-04-15T23:39:33.094Z,7.47
2023-04-15T23:41:59.771Z,9.85
2023-04-15T23:44:27.147Z,12.13
2023-04-15T23:46:53.865Z,15.52
2023-04-15T23:49:20.774Z,9.55
2023-04-15T23:51:47.515Z,12.95
2023-04-15T23:54:14.867Z,13.40
2023-04-15T23:56:41.496Z,12.52
2023-04-15T23:59:08.439Z,11.82
